EGHI

Details ICAO EGHI (SOU)
Name Southampton
Region United Kingdom
Timezone Europe/London (UTC+1.0)
Plans Departing 688
Arriving 467
Stats Elevation 41 ft / 12 m (AMSL)
Location 50.950300° -1.356790°
Runways 1
Magnetic Variation 0.690° W
Sunrise 2018-10-16 06:30:59 UTC / 2018-10-16 07:30:59 Local
Sunset 2018-10-16 17:13:19 UTC / 2018-10-16 18:13:19 Local
Advertisement - Login to hide

Runways

ID Width Length Bearing (true/mag) Surface Threshold Overrun Markings Lighting
02 121 ft / 37 m 5,651 ft / 1,722 m 19.36° / 20.05° ASPHALT 239 ft / 73 m 66 ft / 20 m UK-PREC-APP CENTERLINE EDGE THRESHOLD MALS
20 121 ft / 37 m 5,651 ft / 1,722 m 199.36° / 200.05° ASPHALT 151 ft / 46 m 0 ft / 0 m UK-PREC-APP CENTERLINE EDGE THRESHOLD MALS

Approach Navaids

Runway Type Ident Frequency Range Bearing (true/mag) Slope Elevation
20 GS ISN 110.75 MHz 10 nm / 19 km 199.35° / 200.04° 3.10° 41 ft / 12 m (AMSL)
20 DME ISN 110.75 MHz 18 nm / 33 km - - 54 ft / 16 m (AMSL)
20 LOC-ILS ISN 110.75 MHz 18 nm / 33 km 199.35° / 200.04° - 41 ft / 12 m (AMSL)

Map

Weather


0- 5 10 15 20 25 30 35+ Temperature / °C

Clouds and Precipitation
Forecast for 2018-10-16 12:00 UTC. Updated 4 hours ago

Ground ~20,000 ft ~40,000 ft Winds

METAR

EGHI 161320Z 20005KT 160V220 9999 SCT016 BKN026 16/14 Q1015

TAF

Not found

Frequencies

Tower 118.20 MHz Southampton Tower
Tower 118.35 MHz Southampton Info
Warning: Do not use this data for real-world aviation or navigation. No guarantee of current accuracy is given.